DAUU/OGX METAR and TAF weather

Enter ICAO airport designator
Station Type Date Time Source
DAUU METAR 2019/04/23 00:00 UTC NOAA

DAUU 230000Z 00000KT 9999 FEW040 SCT100 19/02 Q1005


Station Type Date Time Source
DAUU Decoded METAR 2019/04/23 00:00 UTC NOAA

Ouargla, Algeria (DAUU) 31-55N 005-24E 141M
Apr 22, 2019 - 08:00 PM EDT / 2019.04.23 0000 UTC
Wind: Calm:0
Visibility: greater than 7 mile(s):0
Sky conditions: partly cloudy
Temperature: 66 F (19 C)
Dew Point: 35 F (2 C)
Relative Humidity: 32%
Pressure (altimeter): 29.68 in. Hg (1005 hPa)
ob: DAUU 230000Z 00000KT 9999 FEW040 SCT100 19/02 Q1005
cycle: 0

Station Type Date Time Source
DAUU TAF 2017/11/09 18:03 UTC NOAA

TAF DAUU 091700Z 0918/1009 34012KT 9999 FEW040 SCT100 PROB40
TEMPO 0918/0924 34015G25KT 5000 -TSRA FEW036CB

Example: see airport list